SARL/AOL METAR and TAF weather

Enter ICAO airport designator
Station Type Date Time Source
SARL METAR 2022/10/01 08:00 UTC NOAA

SARL 010800Z 23004KT 0700 FG 11/10 Q1019


Station Type Date Time Source
SARL Decoded METAR 2022/10/01 08:00 UTC NOAA

Paso De Los Libres Aerodrome, Argentina (SARL) 29-41S 057-09W 70M
Oct 01, 2022 - 04:00 AM EDT / 2022.10.01 0800 UTC
Wind: from the SW (230 degrees) at 5 MPH (4 KT):0
Visibility: less than 1 mile:0
Weather: fog
Temperature: 51 F (11 C)
Dew Point: 50 F (10 C)
Relative Humidity: 93%
Pressure (altimeter): 30.09 in. Hg (1019 hPa)
ob: SARL 010800Z 23004KT 0700 FG 11/10 Q1019
cycle: 8

Station Type Date Time Source
SARL TAF UTC NOAA

Error!

Example: see airport list